Time;durP1;ratioP1;P1;durP2;ratioP2;P2;SDS_P1;SDS_P2;PMS_P1;PMS_P2;Temp;Humidity;BMP_temperature;BMP_pressure;BME280_temperature;BME280_humidity;BME280_pressure;Samples;Min_cycle;Max_cycle;Signal;HPM_P1;HPM_P2
2022/01/31 00:01:46;;;;;;;3.53;1.50;;;;;;;;;;5020460;28;20045;-61
2022/01/31 00:04:14;;;;;;;5.97;1.67;;;;;;;;;;5028762;28;20042;-62
2022/01/31 00:06:42;;;;;;;5.93;1.70;;;;;;;;;;5009661;28;20047;-62
2022/01/31 00:09:15;;;;;;;5.25;2.15;;;;;;;;;;5024174;28;20053;-62
2022/01/31 00:11:44;;;;;;;5.50;1.42;;;;;;;;;;5024603;28;20119;-61
2022/01/31 00:14:28;;;;;;;7.05;1.55;;;;;;;;;;5020157;28;20180;-62
2022/01/31 00:16:54;;;;;;;3.40;1.45;;;;;;;;;;5022129;28;20060;-60
2022/01/31 00:19:21;;;;;;;6.90;1.13;;;;;;;;;;5022784;28;20111;-62
2022/01/31 00:21:47;;;;;;;7.78;1.60;;;;;;;;;;5025757;28;20045;-62
2022/01/31 00:24:14;;;;;;;6.40;1.42;;;;;;;;;;5015060;28;20640;-62
2022/01/31 00:26:40;;;;;;;3.28;1.60;;;;;;;;;;5024041;28;20128;-62
2022/01/31 00:29:06;;;;;;;8.43;1.83;;;;;;;;;;5021969;28;20184;-62
2022/01/31 00:31:33;;;;;;;3.80;1.20;;;;;;;;;;5021960;28;20088;-62
2022/01/31 00:34:02;;;;;;;6.55;1.65;;;;;;;;;;5017882;28;20049;-62
2022/01/31 00:36:28;;;;;;;5.18;1.33;;;;;;;;;;5022756;28;20132;-62
2022/01/31 00:38:55;;;;;;;3.10;1.20;;;;;;;;;;5019924;28;20046;-62
2022/01/31 00:41:23;;;;;;;7.57;1.80;;;;;;;;;;5024253;28;20148;-62
2022/01/31 00:44:00;;;;;;;6.60;1.50;;;;;;;;;;5020766;28;20049;-64
2022/01/31 00:46:36;;;;;;;;;;;;;;;;;;5019334;28;20052;-61
2022/01/31 00:49:03;;;;;;;4.13;1.53;;;;;;;;;;5022935;28;19956;-62
2022/01/31 00:51:30;;;;;;;2.15;1.27;;;;;;;;;;5021408;28;20072;-62
2022/01/31 00:53:56;;;;;;;7.25;1.55;;;;;;;;;;5025066;28;20132;-62
2022/01/31 00:56:22;;;;;;;3.73;1.40;;;;;;;;;;5020643;28;20077;-62
2022/01/31 00:58:49;;;;;;;5.18;1.60;;;;;;;;;;5006736;28;20049;-62
2022/01/31 01:01:15;;;;;;;3.97;1.63;;;;;;;;;;5025615;28;20045;-62
2022/01/31 01:03:42;;;;;;;4.72;1.85;;;;;;;;;;5018743;28;20049;-61
2022/01/31 01:06:10;;;;;;;7.57;1.52;;;;;;;;;;5021414;28;20069;-62
2022/01/31 01:08:37;;;;;;;5.70;1.83;;;;;;;;;;5020556;28;20045;-61
2022/01/31 01:11:04;;;;;;;5.55;1.23;;;;;;;;;;5020976;28;20057;-62
2022/01/31 01:13:30;;;;;;;9.20;2.03;;;;;;;;;;5023789;28;20053;-62
2022/01/31 01:15:57;;;;;;;5.00;1.70;;;;;;;;;;5021443;28;20128;-62
2022/01/31 01:18:23;;;;;;;8.97;1.40;;;;;;;;;;5020464;28;20052;-62
2022/01/31 01:20:58;;;;;;;6.40;1.73;;;;;;;;;;5022391;28;20316;-61
2022/01/31 01:23:24;;;;;;;9.07;1.40;;;;;;;;;;5020071;28;20480;-62
2022/01/31 01:25:51;;;;;;;5.27;1.60;;;;;;;;;;5019067;28;20486;-62
2022/01/31 01:28:22;;;;;;;3.37;1.67;;;;;;;;;;5023293;28;20052;-62
2022/01/31 01:30:49;;;;;;;5.47;1.70;;;;;;;;;;5023194;28;20589;-62
2022/01/31 01:33:21;;;;;;;5.88;1.50;;;;;;;;;;5023705;28;20060;-61
2022/01/31 01:35:55;;;;;;;7.30;2.27;;;;;;;;;;5020579;28;20129;-61
2022/01/31 01:38:27;;;;;;;3.92;1.60;;;;;;;;;;5019045;28;20513;-61
2022/01/31 01:40:55;;;;;;;5.17;1.60;;;;;;;;;;5023945;28;20064;-61
2022/01/31 01:43:23;;;;;;;7.20;1.50;;;;;;;;;;5018583;28;20100;-61
2022/01/31 01:45:53;;;;;;;4.35;1.42;;;;;;;;;;5021235;28;20148;-62
2022/01/31 01:48:20;;;;;;;7.50;1.70;;;;;;;;;;5021092;28;20050;-62
2022/01/31 01:50:47;;;;;;;3.30;1.13;;;;;;;;;;5022184;28;20052;-61
2022/01/31 01:53:13;;;;;;;5.03;1.30;;;;;;;;;;5020058;28;20054;-61
2022/01/31 01:55:40;;;;;;;3.53;1.50;;;;;;;;;;5021092;28;20124;-62
2022/01/31 01:58:14;;;;;;;5.50;1.45;;;;;;;;;;5018594;28;20102;-62
2022/01/31 02:00:49;;;;;;;9.87;1.90;;;;;;;;;;5020558;28;20472;-62
2022/01/31 02:03:20;;;;;;;5.90;1.63;;;;;;;;;;5022233;28;20545;-61
2022/01/31 02:05:47;;;;;;;3.57;1.53;;;;;;;;;;5024660;28;20136;-61
2022/01/31 02:08:14;;;;;;;3.35;1.38;;;;;;;;;;5020472;28;20053;-62
2022/01/31 02:10:41;;;;;;;3.00;1.25;;;;;;;;;;5023362;28;20050;-61
2022/01/31 02:13:08;;;;;;;2.63;1.17;;;;;;;;;;5022386;28;20108;-61
2022/01/31 02:15:35;;;;;;;7.82;1.75;;;;;;;;;;5020020;28;20498;-61
2022/01/31 02:18:06;;;;;;;9.23;1.70;;;;;;;;;;5017350;28;20169;-62
2022/01/31 02:20:39;;;;;;;6.03;1.30;;;;;;;;;;5022278;28;20141;-61
2022/01/31 02:23:07;;;;;;;7.07;1.50;;;;;;;;;;5022797;28;20525;-62
2022/01/31 02:25:33;;;;;;;;;;;;;;;;;;5019432;28;20041;-61
2022/01/31 02:27:59;;;;;;;8.10;1.60;;;;;;;;;;5020766;28;20395;-61
2022/01/31 02:30:27;;;;;;;;;;;;;;;;;;5024581;28;20050;-61
2022/01/31 02:32:53;;;;;;;8.60;1.50;;;;;;;;;;5021891;28;20040;-62
2022/01/31 02:35:20;;;;;;;5.70;1.50;;;;;;;;;;5022434;28;20049;-61
2022/01/31 02:37:48;;;;;;;4.23;1.30;;;;;;;;;;5024587;28;20081;-61
2022/01/31 02:40:14;;;;;;;9.07;1.90;;;;;;;;;;5023553;28;20592;-61
2022/01/31 02:42:40;;;;;;;2.73;1.60;;;;;;;;;;5023488;28;20707;-62
2022/01/31 02:45:08;;;;;;;;;;;;;;;;;;5024517;28;20114;-61
2022/01/31 02:47:39;;;;;;;5.33;1.90;;;;;;;;;;5027007;28;19968;-62
2022/01/31 02:50:08;;;;;;;9.17;1.97;;;;;;;;;;5044545;28;20144;-61
2022/01/31 02:52:36;;;;;;;7.37;1.70;;;;;;;;;;5042951;28;20140;-61
2022/01/31 02:55:04;;;;;;;4.77;1.60;;;;;;;;;;5042091;28;20089;-61
2022/01/31 02:57:30;;;;;;;4.33;1.93;;;;;;;;;;5047190;28;20561;-61
2022/01/31 02:59:58;;;;;;;3.30;1.40;;;;;;;;;;5046922;28;20057;-61
2022/01/31 03:02:25;;;;;;;8.02;1.92;;;;;;;;;;5045945;28;20050;-61
2022/01/31 03:04:52;;;;;;;2.97;1.33;;;;;;;;;;5042052;28;20049;-62
2022/01/31 03:07:25;;;;;;;8.80;2.00;;;;;;;;;;5045604;28;20653;-61
2022/01/31 03:09:52;;;;;;;6.63;1.80;;;;;;;;;;5048419;28;20084;-62
2022/01/31 03:12:18;;;;;;;5.00;1.70;;;;;;;;;;5043938;28;20698;-62
2022/01/31 03:14:52;;;;;;;8.83;1.47;;;;;;;;;;5042287;28;20048;-61
2022/01/31 03:17:18;;;;;;;6.53;1.70;;;;;;;;;;5045544;28;20135;-62
2022/01/31 03:19:52;;;;;;;8.93;2.00;;;;;;;;;;5043964;28;20040;-61
2022/01/31 03:22:23;;;;;;;6.90;1.70;;;;;;;;;;5042256;28;20091;-61
2022/01/31 03:24:49;;;;;;;11.67;1.90;;;;;;;;;;5041538;28;20485;-61
2022/01/31 03:27:15;;;;;;;9.70;1.43;;;;;;;;;;5042921;28;20459;-61
2022/01/31 03:29:49;;;;;;;4.60;1.60;;;;;;;;;;5043206;28;20303;-61
2022/01/31 03:32:15;;;;;;;6.57;1.80;;;;;;;;;;5044643;28;20566;-61
2022/01/31 03:34:42;;;;;;;11.75;1.63;;;;;;;;;;5043888;28;20056;-61
2022/01/31 03:37:10;;;;;;;6.50;1.70;;;;;;;;;;5040552;28;20530;-61
2022/01/31 03:39:37;;;;;;;4.93;1.73;;;;;;;;;;5043717;28;20722;-61
2022/01/31 03:42:03;;;;;;;3.00;1.97;;;;;;;;;;5041302;28;20789;-61
2022/01/31 03:44:30;;;;;;;5.63;1.60;;;;;;;;;;5044761;28;20085;-61
2022/01/31 03:46:57;;;;;;;5.90;1.43;;;;;;;;;;5044990;28;20095;-61
2022/01/31 03:49:23;;;;;;;5.07;1.52;;;;;;;;;;5029464;28;20053;-61
2022/01/31 03:51:57;;;;;;;4.40;2.07;;;;;;;;;;5021935;28;20064;-61
2022/01/31 03:54:24;;;;;;;10.93;1.50;;;;;;;;;;5022749;28;20080;-61
2022/01/31 03:56:50;;;;;;;4.23;1.60;;;;;;;;;;5026111;28;20137;-62
2022/01/31 03:59:17;;;;;;;3.72;1.45;;;;;;;;;;5020132;28;20153;-61
2022/01/31 04:01:43;;;;;;;3.30;1.60;;;;;;;;;;5024678;28;20145;-61
2022/01/31 04:04:10;;;;;;;5.20;1.80;;;;;;;;;;5022798;28;20292;-61
2022/01/31 04:06:44;;;;;;;5.70;1.50;;;;;;;;;;5024226;28;20054;-61
2022/01/31 04:09:10;;;;;;;6.33;1.67;;;;;;;;;;5021415;28;20041;-62
2022/01/31 04:11:37;;;;;;;5.87;1.63;;;;;;;;;;5021692;28;21029;-61
2022/01/31 04:14:04;;;;;;;3.20;1.30;;;;;;;;;;5022278;28;20096;-62
2022/01/31 04:16:30;;;;;;;7.90;1.90;;;;;;;;;;5021345;28;20149;-62
2022/01/31 04:18:56;;;;;;;7.53;2.08;;;;;;;;;;5024252;28;20055;-61
2022/01/31 04:21:30;;;;;;;10.83;2.03;;;;;;;;;;5021533;28;20129;-61
2022/01/31 04:23:58;;;;;;;8.32;1.85;;;;;;;;;;5018304;28;20132;-61
2022/01/31 04:26:32;;;;;;;4.07;1.60;;;;;;;;;;5022327;28;20084;-61
2022/01/31 04:29:14;;;;;;;12.27;2.10;;;;;;;;;;5027158;28;20053;-61
2022/01/31 04:31:44;;;;;;;8.40;2.43;;;;;;;;;;5022029;28;20458;-61
2022/01/31 04:34:12;;;;;;;10.80;1.53;;;;;;;;;;5019881;28;20057;-61
2022/01/31 04:36:38;;;;;;;2.28;1.27;;;;;;;;;;5021095;28;20103;-61
2022/01/31 04:39:04;;;;;;;4.83;1.47;;;;;;;;;;5023289;28;20137;-61
2022/01/31 04:41:35;;;;;;;6.67;1.80;;;;;;;;;;5022216;28;20042;-61
2022/01/31 04:44:06;;;;;;;10.93;1.83;;;;;;;;;;5023757;28;20124;-61
2022/01/31 04:46:32;;;;;;;6.73;1.40;;;;;;;;;;5022688;28;20799;-61
2022/01/31 04:48:59;;;;;;;3.42;1.40;;;;;;;;;;5021590;28;20049;-62
2022/01/31 04:51:26;;;;;;;5.65;1.73;;;;;;;;;;5020546;28;20523;-63
2022/01/31 04:53:52;;;;;;;9.07;1.45;;;;;;;;;;5024871;28;20140;-61
2022/01/31 04:56:19;;;;;;;3.38;1.23;;;;;;;;;;5024032;28;20077;-61
2022/01/31 04:58:45;;;;;;;2.65;1.55;;;;;;;;;;5024579;28;20049;-61
2022/01/31 05:01:12;;;;;;;5.18;1.90;;;;;;;;;;5021746;28;20466;-61
2022/01/31 05:03:40;;;;;;;10.80;2.55;;;;;;;;;;5021700;28;20057;-61
2022/01/31 05:06:08;;;;;;;5.77;1.57;;;;;;;;;;5018596;28;20059;-61
2022/01/31 05:08:36;;;;;;;11.90;1.70;;;;;;;;;;5020690;28;20123;-61
2022/01/31 05:11:05;;;;;;;6.00;1.97;;;;;;;;;;5019347;28;20580;-61
2022/01/31 05:13:32;;;;;;;5.30;1.73;;;;;;;;;;5023756;28;20143;-61
2022/01/31 05:15:59;;;;;;;;;;;;;;;;;;5021184;28;20834;-61
2022/01/31 05:18:25;;;;;;;6.87;1.80;;;;;;;;;;5017324;28;19957;-61
2022/01/31 05:20:52;;;;;;;4.63;1.52;;;;;;;;;;5019297;28;20140;-61
2022/01/31 05:23:18;;;;;;;4.20;2.00;;;;;;;;;;5020036;28;20173;-61
2022/01/31 05:25:46;;;;;;;4.97;1.83;;;;;;;;;;5022228;28;20128;-61
2022/01/31 05:28:12;;;;;;;3.73;1.30;;;;;;;;;;5023680;28;20148;-61
2022/01/31 05:30:39;;;;;;;5.80;1.73;;;;;;;;;;5021326;28;20076;-61
2022/01/31 05:33:08;;;;;;;6.57;1.57;;;;;;;;;;5022370;28;20122;-61
2022/01/31 05:35:34;;;;;;;8.67;2.00;;;;;;;;;;5019580;28;20084;-61
2022/01/31 05:38:01;;;;;;;2.78;1.60;;;;;;;;;;5026775;28;20095;-63
2022/01/31 05:40:31;;;;;;;6.87;2.40;;;;;;;;;;5020884;28;20451;-62
2022/01/31 05:42:57;;;;;;;4.47;2.25;;;;;;;;;;5025358;28;20168;-62
2022/01/31 05:45:23;;;;;;;11.60;2.13;;;;;;;;;;5024603;28;20042;-62
2022/01/31 05:47:50;;;;;;;6.13;1.70;;;;;;;;;;5020815;28;20053;-62
2022/01/31 05:50:17;;;;;;;7.73;1.60;;;;;;;;;;5021841;28;20088;-62
2022/01/31 05:52:43;;;;;;;10.18;1.60;;;;;;;;;;5023751;28;20341;-61
2022/01/31 05:55:12;;;;;;;6.53;2.03;;;;;;;;;;5022266;28;20058;-62
2022/01/31 05:57:38;;;;;;;9.03;2.07;;;;;;;;;;5022053;28;20085;-62
2022/01/31 06:00:06;;;;;;;2.42;1.38;;;;;;;;;;5022327;28;20049;-62
2022/01/31 06:02:32;;;;;;;9.70;1.60;;;;;;;;;;5021254;28;20168;-62
2022/01/31 06:04:58;;;;;;;4.33;1.50;;;;;;;;;;5018530;28;20060;-62
2022/01/31 06:07:25;;;;;;;7.70;2.00;;;;;;;;;;5020927;28;20393;-62
2022/01/31 06:09:59;;;;;;;7.63;2.00;;;;;;;;;;5021657;28;20164;-61
2022/01/31 06:12:26;;;;;;;7.93;2.20;;;;;;;;;;5026818;28;20050;-61
2022/01/31 06:14:52;;;;;;;5.82;1.90;;;;;;;;;;5025959;28;20049;-62
2022/01/31 06:17:19;;;;;;;3.17;1.75;;;;;;;;;;5023960;28;20046;-61
2022/01/31 06:19:45;;;;;;;5.03;1.90;;;;;;;;;;5024834;28;20080;-62
2022/01/31 06:22:12;;;;;;;1.92;1.20;;;;;;;;;;5020100;28;20050;-61
2022/01/31 06:24:40;;;;;;;;;;;;;;;;;;5023974;28;20056;-62
2022/01/31 06:27:06;;;;;;;5.53;2.07;;;;;;;;;;5021673;28;19925;-62
2022/01/31 06:29:32;;;;;;;5.93;2.10;;;;;;;;;;5027655;28;20129;-61
2022/01/31 06:32:01;;;;;;;8.60;2.00;;;;;;;;;;5020581;28;20305;-62
2022/01/31 06:34:28;;;;;;;6.93;1.65;;;;;;;;;;5027655;28;20085;-62
2022/01/31 06:36:54;;;;;;;8.18;1.70;;;;;;;;;;5025850;28;20519;-62
2022/01/31 06:39:22;;;;;;;8.43;2.10;;;;;;;;;;5024768;28;20083;-61
2022/01/31 06:41:48;;;;;;;2.00;1.23;;;;;;;;;;5026070;28;20060;-62
2022/01/31 06:44:15;;;;;;;10.97;2.43;;;;;;;;;;5023964;28;20529;-62
2022/01/31 06:46:42;;;;;;;4.85;2.00;;;;;;;;;;5025111;28;20133;-61
2022/01/31 06:49:08;;;;;;;6.95;2.47;;;;;;;;;;5024128;28;20057;-62
2022/01/31 06:51:34;;;;;;;8.00;2.37;;;;;;;;;;5026790;28;20050;-62
2022/01/31 06:54:01;;;;;;;4.97;2.03;;;;;;;;;;5022427;28;20148;-62
2022/01/31 06:56:34;;;;;;;8.57;2.25;;;;;;;;;;5020625;28;20089;-62
2022/01/31 06:59:09;;;;;;;5.47;2.07;;;;;;;;;;5019961;28;20394;-62
2022/01/31 07:01:35;;;;;;;7.70;2.50;;;;;;;;;;5019693;28;20056;-62
2022/01/31 07:04:02;;;;;;;5.78;1.92;;;;;;;;;;5021014;28;20489;-62
2022/01/31 07:06:35;;;;;;;5.07;2.40;;;;;;;;;;5021123;28;20632;-62
2022/01/31 07:09:02;;;;;;;13.45;2.47;;;;;;;;;;5020663;28;20412;-62
2022/01/31 07:11:33;;;;;;;8.00;3.00;;;;;;;;;;5020341;28;20091;-62
2022/01/31 07:14:07;;;;;;;16.47;4.30;;;;;;;;;;5017738;28;20049;-62
2022/01/31 07:16:37;;;;;;;10.87;3.60;;;;;;;;;;5019740;28;20586;-62
2022/01/31 07:19:08;;;;;;;11.13;3.27;;;;;;;;;;5016247;28;20075;-62
2022/01/31 07:21:44;;;;;;;12.30;4.37;;;;;;;;;;5018630;28;20106;-62
2022/01/31 07:26:44;;;;;;;10.67;3.03;;;;;;;;;;5018631;28;20136;-64
2022/01/31 07:29:10;;;;;;;;;;;;;;;;;;5026108;28;20466;-62
2022/01/31 07:31:40;;;;;;;12.50;2.88;;;;;;;;;;5026002;28;20016;-62
2022/01/31 07:34:07;;;;;;;9.13;2.80;;;;;;;;;;5023483;28;20056;-62
2022/01/31 07:36:34;;;;;;;11.35;2.90;;;;;;;;;;5026162;28;20121;-62
2022/01/31 07:39:01;;;;;;;7.63;2.70;;;;;;;;;;5023883;28;20494;-62
2022/01/31 07:41:28;;;;;;;11.60;2.33;;;;;;;;;;5022364;28;20081;-62
2022/01/31 07:43:55;;;;;;;9.20;2.15;;;;;;;;;;5019709;28;20057;-62
2022/01/31 07:46:24;;;;;;;6.67;2.37;;;;;;;;;;5018386;28;20056;-62
2022/01/31 07:48:53;;;;;;;6.80;2.05;;;;;;;;;;5018420;28;20067;-62
2022/01/31 07:51:23;;;;;;;12.13;3.30;;;;;;;;;;5020369;28;20131;-62
2022/01/31 07:53:49;;;;;;;15.20;2.47;;;;;;;;;;5018714;28;20045;-62
2022/01/31 07:56:17;;;;;;;8.60;2.40;;;;;;;;;;5018589;28;20046;-62
2022/01/31 07:58:44;;;;;;;11.07;2.13;;;;;;;;;;5017084;28;20049;-62
2022/01/31 08:01:11;;;;;;;7.93;1.98;;;;;;;;;;5020453;28;20188;-62
2022/01/31 08:03:38;;;;;;;6.82;2.25;;;;;;;;;;5017449;28;20709;-62
2022/01/31 08:06:05;;;;;;;8.23;2.00;;;;;;;;;;5017339;28;20123;-62
2022/01/31 08:08:32;;;;;;;7.88;2.10;;;;;;;;;;5019802;28;20053;-62
2022/01/31 08:10:59;;;;;;;;;;;;;;;;;;5018109;28;20084;-62
2022/01/31 08:13:25;;;;;;;7.27;1.90;;;;;;;;;;5019624;28;20047;-62
2022/01/31 08:18:38;;;;;;;6.77;2.30;;;;;;;;;;5018068;28;20237;-62
2022/01/31 08:21:05;;;;;;;7.00;2.13;;;;;;;;;;5017060;28;20521;-62
2022/01/31 08:23:32;;;;;;;8.52;2.85;;;;;;;;;;5019954;28;20054;-62
2022/01/31 08:26:10;;;;;;;4.33;1.87;;;;;;;;;;5018283;28;20053;-62
2022/01/31 08:28:41;;;;;;;12.93;2.07;;;;;;;;;;5017532;28;20056;-62
2022/01/31 08:31:16;;;;;;;7.67;2.13;;;;;;;;;;5018148;28;20045;-62
2022/01/31 08:33:48;;;;;;;9.07;2.73;;;;;;;;;;5021252;28;20060;-62
2022/01/31 08:36:16;;;;;;;10.87;3.13;;;;;;;;;;5024016;28;20133;-62
2022/01/31 08:38:43;;;;;;;12.52;2.42;;;;;;;;;;5019715;28;20603;-62
2022/01/31 08:41:09;;;;;;;;;;;;;;;;;;5026369;28;20409;-62
2022/01/31 08:43:36;;;;;;;12.50;2.67;;;;;;;;;;5021665;28;20011;-62
2022/01/31 08:46:03;;;;;;;10.45;3.53;;;;;;;;;;5019340;28;20053;-62
2022/01/31 08:48:30;;;;;;;11.38;2.97;;;;;;;;;;5025268;28;20065;-62
2022/01/31 08:50:58;;;;;;;7.37;2.80;;;;;;;;;;5023144;28;20142;-62
2022/01/31 08:53:24;;;;;;;10.93;3.00;;;;;;;;;;5018066;28;20185;-62
2022/01/31 08:55:52;;;;;;;6.38;1.75;;;;;;;;;;5025092;28;20137;-62
2022/01/31 08:58:19;;;;;;;10.73;2.60;;;;;;;;;;5021537;28;20052;-62
2022/01/31 09:00:49;;;;;;;5.00;2.03;;;;;;;;;;5024204;28;20137;-62
2022/01/31 09:03:22;;;;;;;6.87;2.20;;;;;;;;;;5020072;28;20149;-62
2022/01/31 09:05:56;;;;;;;5.17;2.33;;;;;;;;;;5020474;28;20045;-62
2022/01/31 09:08:22;;;;;;;7.10;2.80;;;;;;;;;;5018934;28;20152;-62
2022/01/31 09:10:49;;;;;;;7.83;2.50;;;;;;;;;;5024831;28;20088;-62
2022/01/31 09:13:18;;;;;;;5.83;2.57;;;;;;;;;;5024743;28;20045;-62
2022/01/31 09:15:44;;;;;;;10.68;2.78;;;;;;;;;;5018890;28;20584;-62
2022/01/31 09:18:11;;;;;;;7.20;2.70;;;;;;;;;;5022667;28;20163;-62
2022/01/31 09:20:39;;;;;;;8.18;2.58;;;;;;;;;;5023589;28;20745;-62
2022/01/31 09:23:06;;;;;;;9.67;2.70;;;;;;;;;;5018113;28;20096;-62
2022/01/31 09:25:32;;;;;;;8.13;2.00;;;;;;;;;;5022636;28;20050;-62
2022/01/31 09:28:12;;;;;;;9.80;2.97;;;;;;;;;;5025335;28;20045;-62
2022/01/31 09:30:39;;;;;;;;;;;;;;;;;;5022652;28;20046;-62
2022/01/31 09:33:05;;;;;;;9.05;2.60;;;;;;;;;;5019916;28;20389;-62
2022/01/31 09:35:33;;;;;;;7.88;2.45;;;;;;;;;;5023808;28;20156;-62
2022/01/31 09:38:03;;;;;;;13.48;3.03;;;;;;;;;;5020629;28;20132;-62
2022/01/31 09:40:30;;;;;;;7.30;3.17;;;;;;;;;;5018193;28;20137;-62
2022/01/31 09:43:28;;;;;;;6.55;2.80;;;;;;;;;;5011805;28;20085;-62
2022/01/31 09:46:17;;;;;;;8.52;2.80;;;;;;;;;;5012108;28;20061;-62
2022/01/31 09:48:48;;;;;;;9.82;3.35;;;;;;;;;;5014894;28;20153;-63
2022/01/31 09:51:16;;;;;;;7.50;3.47;;;;;;;;;;5018269;28;20522;-62
2022/01/31 09:53:45;;;;;;;11.85;3.42;;;;;;;;;;5017398;28;20055;-62
2022/01/31 09:56:13;;;;;;;10.10;3.13;;;;;;;;;;5016794;28;20512;-63
2022/01/31 09:58:40;;;;;;;8.95;3.28;;;;;;;;;;5019590;28;20410;-62
2022/01/31 10:01:13;;;;;;;13.98;4.05;;;;;;;;;;5019276;28;20943;-63
2022/01/31 10:03:48;;;;;;;9.95;3.50;;;;;;;;;;5000522;28;20049;-62
2022/01/31 10:06:25;;;;;;;15.77;3.38;;;;;;;;;;5016143;28;20077;-63
2022/01/31 10:09:04;;;;;;;9.32;2.72;;;;;;;;;;5017255;28;20046;-63
2022/01/31 10:11:39;;;;;;;12.35;3.05;;;;;;;;;;5015942;28;20053;-62
2022/01/31 10:16:59;;;;;;;10.13;2.78;;;;;;;;;;5017222;28;20046;-62
2022/01/31 10:19:48;;;;;;;16.23;2.75;;;;;;;;;;5015484;28;20057;-62
2022/01/31 10:22:16;;;;;;;6.72;2.75;;;;;;;;;;5017313;28;20049;-62
2022/01/31 10:24:45;;;;;;;14.15;3.40;;;;;;;;;;5016283;28;20395;-62
2022/01/31 10:27:15;;;;;;;14.07;2.90;;;;;;;;;;5017653;28;20159;-63
2022/01/31 10:29:43;;;;;;;31.27;3.80;;;;;;;;;;5016900;28;20049;-63
2022/01/31 10:32:12;;;;;;;9.60;3.13;;;;;;;;;;5017634;28;20045;-63
2022/01/31 10:34:51;;;;;;;10.07;2.78;;;;;;;;;;5019751;28;20140;-62
2022/01/31 10:37:21;;;;;;;8.77;2.70;;;;;;;;;;5016085;28;20065;-63
2022/01/31 10:53:43;;;;;;;15.60;3.40;;;;;;;;;;5017772;28;20053;-62
2022/01/31 10:56:10;;;;;;;5.97;2.60;;;;;;;;;;5024172;28;20081;-63
2022/01/31 10:58:58;;;;;;;13.15;3.50;;;;;;;;;;5020467;28;20045;-62
2022/01/31 11:01:25;;;;;;;9.43;2.90;;;;;;;;;;5018638;28;20053;-63
2022/01/31 11:04:14;;;;;;;17.67;3.13;;;;;;;;;;5020224;28;20059;-63
2022/01/31 11:06:42;;;;;;;12.85;3.70;;;;;;;;;;5020187;28;20070;-63
2022/01/31 11:09:19;;;;;;;13.88;3.78;;;;;;;;;;5017320;28;20049;-63
2022/01/31 11:11:49;;;;;;;9.55;3.45;;;;;;;;;;5020903;28;20059;-63
2022/01/31 11:14:22;;;;;;;15.18;3.40;;;;;;;;;;5021113;28;20504;-63
2022/01/31 11:16:51;;;;;;;11.95;2.95;;;;;;;;;;5021256;28;20049;-62
2022/01/31 11:19:23;;;;;;;17.63;2.90;;;;;;;;;;5018991;28;20557;-63
2022/01/31 11:22:00;;;;;;;7.82;3.42;;;;;;;;;;5019187;28;20398;-62
2022/01/31 11:24:31;;;;;;;10.95;3.42;;;;;;;;;;5019733;28;20176;-63
2022/01/31 11:27:08;;;;;;;10.07;3.35;;;;;;;;;;5019013;28;20533;-63
2022/01/31 11:29:36;;;;;;;17.80;4.50;;;;;;;;;;5018822;28;20067;-63
2022/01/31 11:32:04;;;;;;;13.80;4.20;;;;;;;;;;5019022;28;20045;-63
2022/01/31 11:34:31;;;;;;;14.95;4.30;;;;;;;;;;5019436;28;20068;-63
2022/01/31 11:36:58;;;;;;;18.15;4.88;;;;;;;;;;5018616;28;20509;-63
2022/01/31 11:39:31;;;;;;;16.83;4.70;;;;;;;;;;5019331;28;20056;-63
2022/01/31 11:41:58;;;;;;;18.75;5.60;;;;;;;;;;5018377;28;20072;-63
2022/01/31 11:44:40;;;;;;;18.33;5.25;;;;;;;;;;5018679;28;20050;-63
2022/01/31 11:47:07;;;;;;;15.60;4.47;;;;;;;;;;5017641;28;20144;-63
2022/01/31 11:49:53;;;;;;;14.70;4.63;;;;;;;;;;5018257;28;20058;-63
2022/01/31 11:52:20;;;;;;;13.18;3.72;;;;;;;;;;5018353;28;20045;-63
2022/01/31 11:54:47;;;;;;;8.85;3.15;;;;;;;;;;5019286;28;20049;-63
2022/01/31 11:57:14;;;;;;;;;;;;;;;;;;5020844;28;20481;-63
2022/01/31 11:59:41;;;;;;;16.40;3.67;;;;;;;;;;5017674;28;19924;-63
2022/01/31 12:02:11;;;;;;;10.48;3.90;;;;;;;;;;5019179;28;20391;-63
2022/01/31 12:04:42;;;;;;;23.80;4.35;;;;;;;;;;5020033;28;20045;-63
2022/01/31 12:07:28;;;;;;;9.20;3.90;;;;;;;;;;5016838;28;20077;-63
2022/01/31 12:09:54;;;;;;;16.67;4.30;;;;;;;;;;5018636;28;20136;-63
2022/01/31 12:13:21;;;;;;;12.93;3.65;;;;;;;;;;5019059;28;20115;-63
2022/01/31 12:15:34;;;;;;;15.48;4.35;;;;;;;;;;5010516;28;20051;-63
2022/01/31 12:24:09;;;;;;;13.95;5.20;;;;;;;;;;5018462;28;20111;-63
2022/01/31 12:26:48;;;;;;;29.25;6.13;;;;;;;;;;5017968;28;20526;-63
2022/01/31 12:29:18;;;;;;;23.63;5.70;;;;;;;;;;5018303;28;20057;-63
2022/01/31 12:31:45;;;;;;;17.70;5.22;;;;;;;;;;5018519;28;20045;-63
2022/01/31 12:34:11;;;;;;;;;;;;;;;;;;5018077;28;20489;-63
2022/01/31 12:36:46;;;;;;;16.55;6.05;;;;;;;;;;5022264;28;20019;-63
2022/01/31 12:39:42;;;;;;;21.48;6.18;;;;;;;;;;5023683;28;20129;-63
2022/01/31 12:45:37;;;;;;;20.15;5.57;;;;;;;;;;5016353;28;20155;-63
2022/01/31 12:48:16;;;;;;;14.95;5.20;;;;;;;;;;5020429;28;20049;-64
2022/01/31 12:50:42;;;;;;;20.60;5.10;;;;;;;;;;5039126;28;20062;-63
2022/01/31 12:53:22;;;;;;;16.63;5.25;;;;;;;;;;5038599;28;20045;-63
2022/01/31 12:55:59;;;;;;;16.13;6.15;;;;;;;;;;5038970;28;20138;-63
2022/01/31 12:58:30;;;;;;;25.15;7.05;;;;;;;;;;5040387;28;20103;-63
2022/01/31 13:00:57;;;;;;;24.30;7.68;;;;;;;;;;5038088;28;20135;-63
2022/01/31 13:03:33;;;;;;;25.60;6.78;;;;;;;;;;5039850;28;20466;-63
2022/01/31 13:06:23;;;;;;;16.17;6.25;;;;;;;;;;5043829;28;20563;-64
2022/01/31 13:08:50;;;;;;;28.25;6.78;;;;;;;;;;5038390;28;20132;-63
2022/01/31 13:11:28;;;;;;;17.25;6.20;;;;;;;;;;5039452;28;20515;-63
2022/01/31 13:14:12;;;;;;;17.20;5.72;;;;;;;;;;5039587;28;20044;-63
2022/01/31 13:17:01;;;;;;;15.52;4.35;;;;;;;;;;5024015;28;20059;-63
2022/01/31 13:19:32;;;;;;;15.40;4.18;;;;;;;;;;5038968;28;20059;-63
2022/01/31 13:22:00;;;;;;;18.00;4.72;;;;;;;;;;5038849;28;20385;-63
2022/01/31 13:24:40;;;;;;;13.20;3.55;;;;;;;;;;5037765;28;20646;-64
2022/01/31 13:27:11;;;;;;;15.45;4.53;;;;;;;;;;5040066;28;20902;-63
2022/01/31 13:29:57;;;;;;;12.05;3.28;;;;;;;;;;5039338;28;20057;-63
2022/01/31 13:32:30;;;;;;;9.88;3.35;;;;;;;;;;5039466;28;20523;-63
2022/01/31 13:35:13;;;;;;;10.32;2.78;;;;;;;;;;5040261;28;20052;-63
2022/01/31 13:37:45;;;;;;;17.77;3.15;;;;;;;;;;5037914;28;20139;-63
2022/01/31 13:40:16;;;;;;;11.20;3.10;;;;;;;;;;5039219;28;20491;-63
2022/01/31 13:42:45;;;;;;;14.60;2.50;;;;;;;;;;5037700;28;20057;-63
2022/01/31 13:45:21;;;;;;;8.43;2.45;;;;;;;;;;5038983;28;20055;-63
2022/01/31 13:48:00;;;;;;;17.88;2.20;;;;;;;;;;5037982;28;20044;-63
2022/01/31 13:50:45;;;;;;;7.50;2.60;;;;;;;;;;5021676;28;20339;-64
2022/01/31 13:53:13;;;;;;;9.68;2.42;;;;;;;;;;5023066;28;20064;-64
2022/01/31 13:55:44;;;;;;;13.18;2.30;;;;;;;;;;5020477;28;20042;-63
2022/01/31 13:58:11;;;;;;;9.32;2.08;;;;;;;;;;5020232;28;20128;-64
2022/01/31 14:00:42;;;;;;;12.57;2.58;;;;;;;;;;5018041;28;20073;-64
2022/01/31 14:03:11;;;;;;;6.97;2.00;;;;;;;;;;5020564;28;20057;-64
2022/01/31 14:05:41;;;;;;;10.73;2.83;;;;;;;;;;5018626;28;20133;-64
2022/01/31 14:08:09;;;;;;;7.53;2.28;;;;;;;;;;5023438;28;20548;-64
2022/01/31 14:10:37;;;;;;;6.18;2.33;;;;;;;;;;5024497;28;20042;-64
2022/01/31 14:13:05;;;;;;;10.07;2.10;;;;;;;;;;5023726;28;20125;-64
2022/01/31 14:15:42;;;;;;;11.93;2.45;;;;;;;;;;5016488;28;20092;-64
2022/01/31 14:18:10;;;;;;;10.75;2.28;;;;;;;;;;5018181;28;20051;-64
2022/01/31 14:20:37;;;;;;;9.43;2.53;;;;;;;;;;5023302;28;20456;-63
2022/01/31 14:23:03;;;;;;;7.20;2.28;;;;;;;;;;5020425;28;20490;-64
2022/01/31 14:25:37;;;;;;;9.68;2.35;;;;;;;;;;5020884;28;20559;-64
2022/01/31 14:28:05;;;;;;;11.35;2.22;;;;;;;;;;5017412;28;20148;-63
2022/01/31 14:30:32;;;;;;;9.13;2.42;;;;;;;;;;5024651;28;20459;-64
2022/01/31 14:33:00;;;;;;;5.57;1.92;;;;;;;;;;5025142;28;20047;-64
2022/01/31 14:35:28;;;;;;;13.93;1.88;;;;;;;;;;5023518;28;20132;-64
2022/01/31 14:37:57;;;;;;;10.88;2.30;;;;;;;;;;5027345;28;20508;-64
2022/01/31 14:41:04;;;;;;;7.63;1.95;;;;;;;;;;5024472;28;20064;-64
2022/01/31 14:49:12;;;;;;;8.70;2.33;;;;;;;;;;5028294;28;20081;-63
2022/01/31 14:51:41;;;;;;;9.10;1.98;;;;;;;;;;5022877;28;20424;-63
2022/01/31 14:54:09;;;;;;;11.63;2.13;;;;;;;;;;5024357;28;20060;-63
2022/01/31 14:56:36;;;;;;;7.05;2.47;;;;;;;;;;5026550;28;20051;-63
2022/01/31 14:59:21;;;;;;;11.93;2.22;;;;;;;;;;5021165;28;20057;-63
2022/01/31 15:01:54;;;;;;;8.48;2.17;;;;;;;;;;5019512;28;20046;-64
2022/01/31 15:04:40;;;;;;;10.82;2.10;;;;;;;;;;5020607;28;20057;-63
2022/01/31 15:07:08;;;;;;;6.35;1.73;;;;;;;;;;5021734;28;20057;-64
2022/01/31 15:09:36;;;;;;;7.93;2.38;;;;;;;;;;5025309;28;20056;-64
2022/01/31 15:12:02;;;;;;;12.32;2.10;;;;;;;;;;5026506;28;20132;-63
2022/01/31 15:14:29;;;;;;;12.73;2.75;;;;;;;;;;5022819;28;20084;-64
2022/01/31 15:16:56;;;;;;;7.38;1.98;;;;;;;;;;5021678;28;20075;-64
2022/01/31 15:19:24;;;;;;;5.90;1.98;;;;;;;;;;5020235;28;20052;-63
2022/01/31 15:21:57;;;;;;;10.63;2.40;;;;;;;;;;5020566;28;20584;-63
2022/01/31 15:24:23;;;;;;;12.25;2.40;;;;;;;;;;5020814;28;20056;-63
2022/01/31 15:26:50;;;;;;;7.00;1.85;;;;;;;;;;5020342;28;20056;-64
2022/01/31 15:29:23;;;;;;;8.05;2.38;;;;;;;;;;5018585;28;20176;-64
2022/01/31 15:31:49;;;;;;;8.48;2.15;;;;;;;;;;5019484;28;20160;-63
2022/01/31 15:34:16;;;;;;;7.60;2.03;;;;;;;;;;5020206;28;20053;-63
2022/01/31 15:36:45;;;;;;;8.85;2.38;;;;;;;;;;5022412;28;20206;-63